RYR63XL EGNX-EIKN
Flight info
| Callsign | RYR63XL |
|---|---|
| Flight time | N/A |
| Altitude | 34000 |
| Route | TNT Q4 VABKA UL8 ASNIP UL28 PENIL M144 BAGSO DCT SUROX DCT EDONO EDONO1A |
| Aircraft | B38M/M-SDE1FGHILORVWXY/HB1 |
Departure
| Time | N/A |
|---|---|
| Airport | East Midlands Airport (EGNX) |
Arrival
| Time | 2026-04-28 20:34 |
|---|---|
| Airport | Ireland West Airport Knock (EIKN) |
| Time | Latitude | Longitude | Altitude | Speed | Heading |
|---|---|---|---|---|---|
| 2026-04-28 20:12 | 53.90677 | -6.55817 | 34441 ft | 426 kts | 295° |
| 2026-04-28 20:12 | 53.92636 | -6.65223 | 34379 ft | 425 kts | 295° |
| 2026-04-28 20:12 | 53.93300 | -6.68420 | 33849 ft | 427 kts | 295° |
| 2026-04-28 20:13 | 53.94607 | -6.74737 | 32643 ft | 428 kts | 294° |
| 2026-04-28 20:13 | 53.95590 | -6.79495 | 31820 ft | 426 kts | 294° |
| 2026-04-28 20:13 | 53.96566 | -6.84228 | 31021 ft | 424 kts | 294° |
| 2026-04-28 20:13 | 53.97537 | -6.88946 | 30200 ft | 421 kts | 294° |
| 2026-04-28 20:14 | 53.98499 | -6.93627 | 29315 ft | 419 kts | 294° |
| 2026-04-28 20:14 | 53.99412 | -6.98317 | 28452 ft | 419 kts | 287° |
| 2026-04-28 20:14 | 53.99675 | -7.03259 | 27615 ft | 423 kts | 270° |
| 2026-04-28 20:14 | 53.99593 | -7.08233 | 26828 ft | 419 kts | 273° |
| 2026-04-28 20:15 | 53.99580 | -7.13172 | 26057 ft | 418 kts | 272° |
| 2026-04-28 20:15 | 53.99554 | -7.18100 | 25296 ft | 415 kts | 272° |
| 2026-04-28 20:15 | 53.99523 | -7.22996 | 24569 ft | 413 kts | 272° |
| 2026-04-28 20:15 | 53.99488 | -7.27866 | 23836 ft | 411 kts | 272° |
| 2026-04-28 20:16 | 53.99451 | -7.32701 | 23002 ft | 409 kts | 271° |
| 2026-04-28 20:16 | 53.99412 | -7.37517 | 22211 ft | 406 kts | 271° |
| 2026-04-28 20:16 | 53.99372 | -7.42297 | 21425 ft | 403 kts | 271° |
| 2026-04-28 20:16 | 53.99330 | -7.47043 | 20686 ft | 403 kts | 271° |
| 2026-04-28 20:17 | 53.99286 | -7.51839 | 19934 ft | 405 kts | 271° |
| 2026-04-28 20:17 | 53.99240 | -7.56600 | 19221 ft | 401 kts | 271° |
| 2026-04-28 20:17 | 53.99193 | -7.61309 | 18621 ft | 394 kts | 271° |
| 2026-04-28 20:17 | 53.99145 | -7.65906 | 18137 ft | 382 kts | 271° |
| 2026-04-28 20:18 | 53.99117 | -7.70354 | 17732 ft | 374 kts | 275° |
| 2026-04-28 20:18 | 53.99332 | -7.73239 | 17403 ft | 371 kts | 285° |
| 2026-04-28 20:18 | 53.99992 | -7.78959 | 16909 ft | 367 kts | 284° |
| 2026-04-28 20:18 | 54.00460 | -7.83208 | 16546 ft | 364 kts | 284° |
| 2026-04-28 20:19 | 54.00918 | -7.87431 | 16158 ft | 363 kts | 283° |
| 2026-04-28 20:19 | 54.01373 | -7.91640 | 15769 ft | 361 kts | 283° |
| 2026-04-28 20:19 | 54.01821 | -7.95825 | 15395 ft | 359 kts | 283° |
| 2026-04-28 20:19 | 54.02262 | -7.99943 | 15014 ft | 358 kts | 283° |
| 2026-04-28 20:20 | 54.02704 | -8.04098 | 14645 ft | 356 kts | 283° |
| 2026-04-28 20:20 | 54.03143 | -8.08233 | 14274 ft | 355 kts | 283° |
| 2026-04-28 20:20 | 54.03579 | -8.12360 | 13853 ft | 354 kts | 282° |
| 2026-04-28 20:20 | 54.04012 | -8.16472 | 13451 ft | 352 kts | 282° |
| 2026-04-28 20:21 | 54.04442 | -8.20558 | 13072 ft | 350 kts | 282° |
| 2026-04-28 20:21 | 54.04593 | -8.24667 | 12653 ft | 351 kts | 263° |
| 2026-04-28 20:21 | 54.04185 | -8.28744 | 12295 ft | 348 kts | 261° |
| 2026-04-28 20:21 | 54.03792 | -8.32783 | 11953 ft | 344 kts | 261° |
| 2026-04-28 20:22 | 54.03405 | -8.36791 | 11598 ft | 342 kts | 261° |
| 2026-04-28 20:22 | 54.03022 | -8.40769 | 11225 ft | 340 kts | 261° |
| 2026-04-28 20:22 | 54.02640 | -8.44724 | 10868 ft | 338 kts | 261° |
| 2026-04-28 20:22 | 54.02263 | -8.48612 | 10504 ft | 327 kts | 261° |
| 2026-04-28 20:23 | 54.01899 | -8.52363 | 10139 ft | 316 kts | 261° |
| 2026-04-28 20:23 | 54.01544 | -8.56001 | 9770 ft | 308 kts | 261° |
| 2026-04-28 20:23 | 54.01195 | -8.59565 | 9438 ft | 304 kts | 261° |
| 2026-04-28 20:23 | 54.00849 | -8.63099 | 9116 ft | 302 kts | 261° |
| 2026-04-28 20:24 | 54.00502 | -8.66623 | 8801 ft | 302 kts | 261° |
| 2026-04-28 20:24 | 54.00155 | -8.70143 | 8469 ft | 301 kts | 260° |
| 2026-04-28 20:24 | 53.99811 | -8.73616 | 8125 ft | 294 kts | 260° |
| 2026-04-28 20:24 | 53.99477 | -8.76977 | 7821 ft | 283 kts | 260° |
| 2026-04-28 20:25 | 53.99153 | -8.80237 | 7563 ft | 277 kts | 260° |
| 2026-04-28 20:25 | 53.98838 | -8.83394 | 7299 ft | 266 kts | 260° |
| 2026-04-28 20:25 | 53.98495 | -8.86431 | 6964 ft | 259 kts | 258° |
| 2026-04-28 20:25 | 53.98144 | -8.89388 | 6635 ft | 252 kts | 258° |
| 2026-04-28 20:26 | 53.97807 | -8.92261 | 6342 ft | 244 kts | 258° |
| 2026-04-28 20:26 | 53.97485 | -8.95000 | 6110 ft | 235 kts | 258° |
| 2026-04-28 20:26 | 53.97174 | -8.97647 | 5971 ft | 222 kts | 258° |
| 2026-04-28 20:26 | 53.96880 | -9.00157 | 5802 ft | 213 kts | 258° |
| 2026-04-28 20:27 | 53.96590 | -9.02618 | 5575 ft | 211 kts | 258° |
| 2026-04-28 20:27 | 53.96300 | -9.05078 | 5374 ft | 213 kts | 258° |
| 2026-04-28 20:27 | 53.96009 | -9.07548 | 5230 ft | 213 kts | 258° |
| 2026-04-28 20:27 | 53.95717 | -9.10013 | 5090 ft | 213 kts | 258° |
| 2026-04-28 20:28 | 53.95174 | -9.12306 | 4886 ft | 207 kts | 228° |
| 2026-04-28 20:28 | 53.94056 | -9.13676 | 4629 ft | 194 kts | 194° |
| 2026-04-28 20:28 | 53.92769 | -9.13893 | 4402 ft | 181 kts | 169° |
| 2026-04-28 20:28 | 53.91549 | -9.13620 | 4230 ft | 173 kts | 166° |
| 2026-04-28 20:29 | 53.90374 | -9.13306 | 4047 ft | 171 kts | 166° |
| 2026-04-28 20:29 | 53.89202 | -9.12935 | 3884 ft | 172 kts | 158° |
| 2026-04-28 20:29 | 53.88279 | -9.11820 | 3661 ft | 161 kts | 119° |
| 2026-04-28 20:29 | 53.87953 | -9.10068 | 3509 ft | 156 kts | 89° |
| 2026-04-28 20:30 | 53.88064 | -9.08242 | 3367 ft | 156 kts | 81° |
| 2026-04-28 20:30 | 53.88231 | -9.06428 | 3228 ft | 156 kts | 81° |
| 2026-04-28 20:30 | 53.88414 | -9.04610 | 3049 ft | 157 kts | 80° |
| 2026-04-28 20:30 | 53.88540 | -9.03409 | 2929 ft | 157 kts | 80° |
| 2026-04-28 20:31 | 53.88732 | -9.01639 | 2808 ft | 148 kts | 80° |
| 2026-04-28 20:31 | 53.88918 | -8.99961 | 2626 ft | 143 kts | 79° |
| 2026-04-28 20:31 | 53.89106 | -8.98301 | 2439 ft | 144 kts | 80° |
| 2026-04-28 20:31 | 53.89293 | -8.96640 | 2283 ft | 143 kts | 79° |
| 2026-04-28 20:32 | 53.89482 | -8.95004 | 2122 ft | 139 kts | 80° |
| 2026-04-28 20:32 | 53.89662 | -8.93442 | 1979 ft | 132 kts | 79° |
| 2026-04-28 20:32 | 53.89837 | -8.91951 | 1818 ft | 127 kts | 79° |
| 2026-04-28 20:32 | 53.90009 | -8.90503 | 1610 ft | 125 kts | 79° |
| 2026-04-28 20:33 | 53.90179 | -8.89060 | 1437 ft | 125 kts | 80° |
| 2026-04-28 20:33 | 53.90352 | -8.87625 | 1255 ft | 124 kts | 81° |
| 2026-04-28 20:33 | 53.90524 | -8.86180 | 1076 ft | 127 kts | 81° |
| 2026-04-28 20:33 | 53.90697 | -8.84696 | 877 ft | 130 kts | 80° |
| 2026-04-28 20:34 | 53.90873 | -8.83207 | 691 ft | 125 kts | 80° |
| 2026-04-28 20:34 | 53.91021 | -8.81904 | 656 ft | 93 kts | 78° |
| 2026-04-28 20:34 | 53.91117 | -8.81121 | 661 ft | 37 kts | 81° |
| 2026-04-28 20:34 | 53.91130 | -8.80995 | 659 ft | 0 kts | 79° |
| 2026-04-28 20:35 | 53.91134 | -8.80958 | 657 ft | 9 kts | 79° |
| 2026-04-28 20:35 | 53.91192 | -8.80867 | 659 ft | 15 kts | 350° |
| 2026-04-28 20:36 | 53.91303 | -8.80913 | 659 ft | 11 kts | 346° |
| 2026-04-28 20:36 | 53.91359 | -8.80929 | 657 ft | 7 kts | 334° |
| 2026-04-28 20:36 | 53.91368 | -8.80946 | 659 ft | 1 kts | 303° |
| 2026-04-28 20:36 | 53.91377 | -8.80965 | 657 ft | 3 kts | 322° |
| 2026-04-28 20:37 | 53.91400 | -8.80980 | 657 ft | 3 kts | 333° |
| 2026-04-28 20:37 | 53.91404 | -8.81013 | 658 ft | 4 kts | 257° |
| 2026-04-28 20:37 | 53.91403 | -8.81020 | 658 ft | 0 kts | 256° |
| 2026-04-28 20:37 | 53.91403 | -8.81021 | 658 ft | 0 kts | 256° |
| 2026-04-28 20:38 | 53.91403 | -8.81022 | 658 ft | 0 kts | 256° |